Chicago Rockford International Airport Chicago,Rockford US
ICAO: KRFD
IATA: RFD
Category: Large
Scheduled Services: Yes

Elevation: 742 ft
TransAlt. 18000 ft.

Airport Communications:
ROCKFORD APP/DEP:121
ATIS:126.7
CLNC DEL:119.25
GND:121.9
KANKAKEE RDO:122.65
ROCKFORD TWR:118.3
UNICOM:122.95

KRFD Zoom In..

Runways:

(A) RW 01 length 8200 ft width 150 ft
ILS 109.30 / hdg 5

(B) RW 07 length 10002 ft width 150 ft
ILS 109.55 / hdg 65

(C) RW 19 length 8200 ft width 150 ft
---- / hdg 185

(D) RW 25 length 10002 ft width 150 ft
---- / hdg 245

Location; KRFD
Day. 22 / Time. 16.45 Zulu
* Altimeter: 29.79
* Temperature: 16° c. 60.8°f.
* Wind from: 030° Speed 11 kn.
Dewpoint: 14° c.
Visibility: 8 Statute Miles.
Clouds: Few 1900 ft.
Clouds: Overcast 1000 ft.
Conditions: Light Rain.

KRFD 221645Z 03011KT 8SM -RA FEW019 OVC100 16/14 A2979 RMK AO2 P0003 T01560139


Wind From 030°
Speed 11 kn.

 
 
jpsmedia.com for Web Design worldairports.se 2018   terms of use